Time;durP1;ratioP1;P1;durP2;ratioP2;P2;SDS_P1;SDS_P2;PMS_P1;PMS_P2;Temp;Humidity;BMP_temperature;BMP_pressure;BME280_temperature;BME280_humidity;BME280_pressure;Samples;Min_cycle;Max_cycle;Signal;HPM_P1;HPM_P2
2021/03/26 00:01:04;;;;;;;20.40;15.30;;;9.80;99.90;;;;;;5096126;28;20453;-81
2021/03/26 00:03:33;;;;;;;20.77;15.23;;;9.80;99.90;;;;;;5106535;28;20456;-81
2021/03/26 00:06:03;;;;;;;22.47;15.40;;;9.40;99.90;;;;;;5114372;28;20492;-81
2021/03/26 00:08:29;;;;;;;17.30;14.43;;;10.00;99.90;;;;;;5099343;28;20953;-82
2021/03/26 00:10:56;;;;;;;21.57;15.10;;;9.70;99.90;;;;;;5097894;28;20448;-82
2021/03/26 00:13:22;;;;;;;21.87;14.70;;;10.00;99.90;;;;;;5120363;28;20188;-84
2021/03/26 00:15:48;;;;;;;20.10;14.57;;;9.80;99.90;;;;;;5120227;28;20421;-82
2021/03/26 00:18:14;;;;;;;24.47;16.00;;;9.80;99.90;;;;;;5100993;28;20713;-82
2021/03/26 00:20:40;;;;;;;24.03;16.60;;;9.80;99.90;;;;;;5117960;28;20441;-82
2021/03/26 00:23:06;;;;;;;21.27;16.20;;;10.00;99.90;;;;;;5114078;28;20464;-83
2021/03/26 00:25:32;;;;;;;27.40;16.27;;;10.10;99.90;;;;;;5116862;27;20206;-82
2021/03/26 00:28:00;;;;;;;25.37;16.90;;;9.70;99.90;;;;;;5096841;28;20492;-82
2021/03/26 00:30:27;;;;;;;20.30;15.53;;;9.80;99.90;;;;;;5099765;28;20451;-82
2021/03/26 00:32:52;;;;;;;21.20;16.00;;;9.70;99.90;;;;;;5116252;28;20508;-82
2021/03/26 00:35:20;;;;;;;22.10;15.60;;;9.70;99.90;;;;;;5099958;28;20505;-82
2021/03/26 00:37:46;;;;;;;19.37;15.60;;;9.80;99.90;;;;;;5115209;28;20197;-82
2021/03/26 00:40:16;;;;;;;19.87;15.93;;;9.80;99.90;;;;;;5111046;27;20512;-82
2021/03/26 00:42:43;;;;;;;21.50;15.80;;;9.90;99.90;;;;;;5121146;27;20229;-84
2021/03/26 00:45:12;;;;;;;21.97;16.57;;;9.70;99.90;;;;;;5117803;28;20461;-82
2021/03/26 00:47:38;;;;;;;22.73;17.20;;;9.60;99.90;;;;;;5118408;28;20917;-82
2021/03/26 00:50:09;;;;;;;22.80;16.83;;;9.70;99.90;;;;;;5117527;28;20424;-82
2021/03/26 00:52:35;;;;;;;27.80;15.77;;;9.60;99.90;;;;;;5116458;28;20198;-82
2021/03/26 00:55:00;;;;;;;21.43;14.87;;;9.70;99.90;;;;;;5104246;28;20446;-82
2021/03/26 00:57:26;;;;;;;25.10;15.33;;;9.60;99.90;;;;;;5116022;28;20172;-84
2021/03/26 00:59:52;;;;;;;24.03;14.80;;;9.60;99.90;;;;;;5098859;28;20555;-82
2021/03/26 01:02:17;;;;;;;22.90;16.20;;;9.50;99.90;;;;;;5094965;28;20205;-82
2021/03/26 01:04:43;;;;;;;23.23;17.37;;;9.30;99.90;;;;;;5092308;28;20216;-82
2021/03/26 01:07:09;;;;;;;21.43;16.10;;;9.30;99.90;;;;;;5082386;28;20260;-82
2021/03/26 01:09:34;;;;;;;23.70;16.30;;;9.40;99.90;;;;;;5101255;28;20187;-83
2021/03/26 01:12:00;;;;;;;19.73;16.00;;;9.40;99.90;;;;;;5102457;27;20254;-83
2021/03/26 01:14:26;;;;;;;19.53;16.60;;;9.10;99.90;;;;;;5064720;28;20192;-82
2021/03/26 01:16:51;;;;;;;21.50;17.10;;;9.30;99.90;;;;;;5099920;28;20187;-81
2021/03/26 01:19:18;;;;;;;23.23;15.23;;;9.00;99.90;;;;;;5099350;28;20472;-82
2021/03/26 01:21:45;;;;;;;24.33;16.33;;;9.00;99.90;;;;;;5095375;28;20460;-83
2021/03/26 01:24:16;;;;;;;21.43;15.77;;;8.90;99.90;;;;;;5106012;28;21174;-83
2021/03/26 01:26:42;;;;;;;25.63;18.07;;;8.80;99.90;;;;;;5096152;28;20485;-82
2021/03/26 01:29:08;;;;;;;21.90;17.00;;;9.00;99.90;;;;;;5111515;28;20481;-82
2021/03/26 01:31:34;;;;;;;23.60;16.87;;;8.90;99.90;;;;;;5078589;28;20430;-82
2021/03/26 01:34:01;;;;;;;22.60;17.10;;;8.80;99.90;;;;;;5116863;28;20267;-82
2021/03/26 01:36:27;;;;;;;20.70;15.60;;;9.00;99.90;;;;;;5117270;28;20507;-83
2021/03/26 01:38:53;;;;;;;23.20;16.87;;;8.90;99.90;;;;;;5119011;28;20828;-84
2021/03/26 01:41:25;;;;;;;24.50;17.60;;;8.80;99.90;;;;;;5108739;27;20203;-82
2021/03/26 01:43:51;;;;;;;25.37;17.60;;;8.80;99.90;;;;;;5119480;27;20648;-83
2021/03/26 01:46:17;;;;;;;25.50;17.23;;;8.90;99.90;;;;;;5115265;28;20462;-82
2021/03/26 01:48:49;;;;;;;22.57;17.07;;;8.80;99.90;;;;;;5115248;28;20998;-82
2021/03/26 01:51:28;;;;;;;20.83;16.20;;;8.90;99.90;;;;;;5114696;28;20976;-82
2021/03/26 01:53:55;;;;;;;22.27;16.63;;;8.70;99.90;;;;;;5111499;28;20426;-82
2021/03/26 01:56:22;;;;;;;23.40;17.80;;;8.70;99.90;;;;;;5093893;28;20419;-82
2021/03/26 01:58:48;;;;;;;20.33;15.70;;;8.60;99.90;;;;;;5079837;28;20819;-83
2021/03/26 02:01:24;;;;;;;25.90;17.07;;;8.40;99.90;;;;;;5115353;28;20432;-81
2021/03/26 02:03:53;;;;;;;23.27;17.43;;;8.70;99.90;;;;;;5125461;27;20444;-82
2021/03/26 02:06:21;;;;;;;24.20;17.13;;;8.60;99.90;;;;;;5108902;28;20505;-82
2021/03/26 02:08:47;;;;;;;25.00;17.63;;;8.60;99.90;;;;;;5095579;28;20430;-83
2021/03/26 02:11:41;;;;;;;21.90;16.87;;;8.40;99.90;;;;;;5103576;28;20436;-82
2021/03/26 02:14:14;;;;;;;23.90;17.30;;;8.60;99.90;;;;;;5114379;28;20419;-82
2021/03/26 02:16:40;;;;;;;27.13;17.50;;;8.60;99.90;;;;;;5116280;28;20933;-82
2021/03/26 02:19:19;;;;;;;28.53;17.80;;;8.40;99.90;;;;;;5114623;28;20553;-84
2021/03/26 02:21:45;;;;;;;29.00;19.63;;;8.50;99.90;;;;;;5102648;28;20203;-83
2021/03/26 02:24:11;;;;;;;26.53;18.20;;;8.80;99.90;;;;;;5094304;28;20462;-82
2021/03/26 02:26:42;;;;;;;22.80;17.63;;;8.80;99.90;;;;;;5116846;28;20195;-82
2021/03/26 02:29:25;;;;;;;28.70;19.67;;;8.60;99.90;;;;;;5115885;28;20490;-82
2021/03/26 02:31:59;;;;;;;26.40;18.30;;;8.80;99.90;;;;;;5115113;28;20437;-82
2021/03/26 02:34:26;;;;;;;26.80;19.03;;;8.90;99.90;;;;;;5094634;28;21049;-83
2021/03/26 02:36:58;;;;;;;29.73;19.57;;;8.90;99.90;;;;;;5080521;28;20422;-83
2021/03/26 02:39:50;;;;;;;25.00;19.73;;;9.00;99.90;;;;;;5111282;28;20422;-82
2021/03/26 02:42:34;;;;;;;29.83;19.20;;;9.00;99.90;;;;;;5109326;28;20445;-84
2021/03/26 02:45:25;;;;;;;25.60;17.23;;;8.80;99.90;;;;;;5096332;28;20856;-82
2021/03/26 02:47:57;;;;;;;27.83;19.10;;;8.90;99.90;;;;;;5104954;28;20902;-82
2021/03/26 02:51:19;;;;;;;28.97;19.77;;;8.80;99.90;;;;;;5097017;28;20421;-82
2021/03/26 02:54:18;;;;;;;28.97;18.30;;;8.80;99.90;;;;;;5075333;28;20406;-82
2021/03/26 02:56:49;;;;;;;26.10;18.97;;;8.70;99.90;;;;;;5058057;28;20413;-82
2021/03/26 02:59:22;;;;;;;28.50;19.10;;;8.70;99.90;;;;;;5107810;28;20413;-82
2021/03/26 03:01:51;;;;;;;24.10;18.17;;;8.70;99.90;;;;;;5113708;28;20441;-82
2021/03/26 03:04:39;;;;;;;27.43;19.20;;;8.90;99.90;;;;;;5086085;28;20470;-82
2021/03/26 03:07:31;;;;;;;25.43;17.63;;;8.80;99.90;;;;;;5092920;28;20414;-83
2021/03/26 03:10:06;;;;;;;27.87;19.77;;;8.50;99.90;;;;;;5108216;28;20418;-83
2021/03/26 03:12:40;;;;;;;27.20;19.80;;;8.70;99.90;;;;;;5108191;27;20440;-82
2021/03/26 03:15:13;;;;;;;26.37;19.83;;;8.50;99.90;;;;;;5105573;28;20429;-83
2021/03/26 03:17:47;;;;;;;27.90;19.97;;;8.70;99.90;;;;;;5114477;28;20480;-83
2021/03/26 03:20:26;;;;;;;30.07;19.17;;;8.80;99.90;;;;;;5096654;28;20466;-82
2021/03/26 03:23:15;;;;;;;28.50;20.20;;;8.90;99.90;;;;;;5113733;28;20413;-82
2021/03/26 03:25:42;;;;;;;27.83;21.07;;;8.70;99.90;;;;;;5089749;28;20612;-83
2021/03/26 03:28:31;;;;;;;31.40;20.60;;;8.70;99.90;;;;;;5118939;27;20849;-82
2021/03/26 03:31:15;;;;;;;29.63;20.07;;;8.90;99.90;;;;;;5115062;28;20437;-81
2021/03/26 03:34:08;;;;;;;31.70;20.63;;;8.80;99.90;;;;;;5113456;28;20422;-82
2021/03/26 03:36:47;;;;;;;37.57;22.63;;;8.70;99.90;;;;;;5076723;28;20411;-82
2021/03/26 03:39:28;;;;;;;33.40;21.73;;;8.90;99.90;;;;;;5094304;28;20453;-81
2021/03/26 03:42:07;;;;;;;28.07;20.40;;;8.70;99.90;;;;;;5101517;28;20446;-82
2021/03/26 03:44:40;;;;;;;30.40;21.00;;;8.60;99.90;;;;;;5112979;28;20485;-82
2021/03/26 03:47:34;;;;;;;28.30;20.63;;;8.80;99.90;;;;;;5114206;28;20417;-82
2021/03/26 03:50:09;;;;;;;31.33;21.60;;;8.80;99.90;;;;;;5113152;28;20420;-82
2021/03/26 03:52:42;;;;;;;26.23;19.93;;;8.50;99.90;;;;;;5114736;28;20425;-82
2021/03/26 03:55:17;;;;;;;32.97;21.77;;;8.50;99.90;;;;;;5111198;28;20910;-82
2021/03/26 03:57:58;;;;;;;30.77;22.10;;;8.70;99.90;;;;;;5108903;28;20425;-82
2021/03/26 04:00:28;;;;;;;28.87;20.97;;;8.50;99.90;;;;;;5112948;28;20502;-82
2021/03/26 04:03:19;;;;;;;33.37;22.63;;;8.60;99.90;;;;;;5095705;28;20422;-82
2021/03/26 04:06:17;;;;;;;28.00;20.20;;;8.50;99.90;;;;;;5113586;28;20459;-82
2021/03/26 04:08:49;;;;;;;26.47;19.37;;;8.40;99.90;;;;;;5100684;28;20489;-82
2021/03/26 04:11:26;;;;;;;31.13;22.37;;;8.70;99.90;;;;;;5082352;28;20444;-82
2021/03/26 04:14:18;;;;;;;30.77;22.03;;;8.40;99.90;;;;;;5118371;28;20414;-82
2021/03/26 04:16:50;;;;;;;37.27;21.60;;;8.60;99.90;;;;;;5108036;28;20475;-82
2021/03/26 04:19:26;;;;;;;30.33;21.03;;;8.40;99.90;;;;;;5093703;28;20416;-82
2021/03/26 04:22:02;;;;;;;30.97;22.07;;;8.50;99.90;;;;;;5112678;28;20445;-82
2021/03/26 04:24:34;;;;;;;30.00;20.80;;;8.40;99.90;;;;;;5113922;28;20527;-82
2021/03/26 04:27:11;;;;;;;40.27;23.93;;;8.30;99.90;;;;;;5104050;28;20430;-82
2021/03/26 04:30:07;;;;;;;30.67;21.90;;;8.30;99.90;;;;;;5111326;28;20437;-82
2021/03/26 04:32:33;;;;;;;33.20;21.20;;;8.10;99.90;;;;;;5107497;28;20433;-81
2021/03/26 04:34:59;;;;;;;31.87;22.67;;;8.20;99.90;;;;;;5095979;28;21087;-82
2021/03/26 04:37:54;;;;;;;31.40;20.73;;;8.30;99.90;;;;;;5094973;28;20425;-82
2021/03/26 04:40:34;;;;;;;32.53;21.37;;;8.10;99.90;;;;;;5092009;28;20527;-82
2021/03/26 04:43:30;;;;;;;31.20;20.67;;;8.10;99.90;;;;;;5103177;28;20902;-82
2021/03/26 04:46:09;;;;;;;30.67;20.90;;;8.10;99.90;;;;;;5079387;28;20462;-81
2021/03/26 04:48:40;;;;;;;33.00;21.40;;;8.10;99.90;;;;;;5095351;28;20466;-82
2021/03/26 04:51:18;;;;;;;34.73;23.97;;;8.10;99.90;;;;;;5115166;28;20459;-82
2021/03/26 04:54:00;;;;;;;36.73;23.13;;;8.20;99.90;;;;;;5098866;28;20587;-81
2021/03/26 04:56:31;;;;;;;30.67;22.40;;;8.30;99.90;;;;;;5111801;27;20433;-83
2021/03/26 04:59:02;;;;;;;39.07;23.50;;;8.00;99.90;;;;;;5110932;27;20496;-81
2021/03/26 05:01:30;;;;;;;37.00;22.90;;;8.10;99.90;;;;;;5119770;28;20503;-81
2021/03/26 05:03:59;;;;;;;33.70;21.70;;;8.10;99.90;;;;;;5122947;28;20436;-84
2021/03/26 05:06:29;;;;;;;31.47;20.30;;;7.90;99.90;;;;;;5118024;28;20501;-82
2021/03/26 05:09:25;;;;;;;34.37;23.10;;;7.90;99.90;;;;;;5098389;28;20425;-85
2021/03/26 05:11:58;;;;;;;32.57;21.00;;;8.00;99.90;;;;;;5115121;28;20442;-81
2021/03/26 05:14:39;;;;;;;34.23;23.57;;;7.90;99.90;;;;;;5095713;28;20472;-82
2021/03/26 05:17:21;;;;;;;33.57;22.47;;;7.80;99.90;;;;;;5095340;28;20471;-82
2021/03/26 05:19:52;;;;;;;32.63;21.70;;;8.00;99.90;;;;;;5116159;28;20423;-83
2021/03/26 05:22:41;;;;;;;31.40;21.37;;;7.90;99.90;;;;;;5115271;28;20494;-82
2021/03/26 05:25:19;;;;;;;35.30;21.50;;;7.90;99.90;;;;;;5114574;28;20844;-82
2021/03/26 05:27:46;;;;;;;32.33;23.33;;;7.70;99.90;;;;;;5111509;28;20441;-82
2021/03/26 05:30:21;;;;;;;35.73;23.40;;;7.70;99.90;;;;;;5095854;28;20467;-82
2021/03/26 05:32:55;;;;;;;32.47;23.17;;;7.80;99.90;;;;;;5114737;28;20439;-82
2021/03/26 05:35:38;;;;;;;31.40;22.70;;;7.80;99.90;;;;;;5098949;28;20490;-82
2021/03/26 05:38:14;;;;;;;31.00;21.97;;;7.90;99.90;;;;;;5102593;28;20418;-83
2021/03/26 05:40:50;;;;;;;31.97;23.57;;;7.90;99.90;;;;;;5114068;28;20448;-82
2021/03/26 05:43:54;;;;;;;34.70;23.30;;;8.30;99.90;;;;;;5110647;28;20516;-82
2021/03/26 05:46:55;;;;;;;34.63;22.50;;;8.20;99.90;;;;;;5115222;28;20433;-82
2021/03/26 05:49:39;;;;;;;34.17;23.57;;;8.10;99.90;;;;;;5102858;28;20431;-82
2021/03/26 05:52:16;;;;;;;33.13;22.57;;;8.10;99.90;;;;;;5114935;28;20437;-83
2021/03/26 05:55:06;;;;;;;34.10;23.17;;;8.10;99.90;;;;;;5117092;28;20554;-82
2021/03/26 05:57:50;;;;;;;34.33;24.10;;;8.30;99.90;;;;;;5095833;28;21068;-81
2021/03/26 06:00:53;;;;;;;35.60;23.70;;;8.20;99.90;;;;;;5119235;27;20555;-81
2021/03/26 06:04:02;;;;;;;32.90;23.17;;;8.30;99.90;;;;;;5101716;28;20987;-82
2021/03/26 06:06:55;;;;;;;34.03;23.17;;;8.40;99.90;;;;;;5116515;28;20500;-82
2021/03/26 06:09:51;;;;;;;34.63;23.60;;;8.20;99.90;;;;;;5114817;28;20418;-82
2021/03/26 06:12:37;;;;;;;35.20;23.63;;;8.40;99.90;;;;;;5113323;28;20516;-82
2021/03/26 06:15:32;;;;;;;34.27;21.83;;;8.60;99.90;;;;;;5115565;28;20422;-81
2021/03/26 06:18:27;;;;;;;33.37;23.33;;;8.60;99.90;;;;;;5116000;28;20409;-83
2021/03/26 06:21:30;;;;;;;31.10;22.40;;;9.00;99.90;;;;;;5116966;28;21019;-82
2021/03/26 06:24:36;;;;;;;29.57;21.30;;;9.00;99.90;;;;;;5109432;28;20417;-84
2021/03/26 06:27:39;;;;;;;33.17;22.57;;;9.30;99.90;;;;;;5095719;28;20438;-82
2021/03/26 06:30:17;;;;;;;33.33;22.00;;;9.20;99.90;;;;;;5108757;27;20441;-82
2021/03/26 06:33:04;;;;;;;38.03;26.20;;;9.50;99.90;;;;;;5101394;28;20508;-82
2021/03/26 06:35:42;;;;;;;33.03;21.80;;;9.70;99.90;;;;;;5115117;28;20776;-82
2021/03/26 06:38:17;;;;;;;33.20;22.33;;;9.90;99.90;;;;;;5116482;28;20413;-82
2021/03/26 06:41:10;;;;;;;35.13;23.60;;;10.00;99.90;;;;;;5115310;28;20437;-82
2021/03/26 06:44:07;;;;;;;29.70;20.90;;;9.90;99.90;;;;;;5109589;28;20426;-82
2021/03/26 06:46:45;;;;;;;37.10;23.43;;;10.20;99.90;;;;;;5107756;28;20437;-82
2021/03/26 06:49:47;;;;;;;32.73;24.47;;;10.50;99.90;;;;;;5103211;28;20410;-84
2021/03/26 06:52:55;;;;;;;32.30;22.60;;;10.40;99.90;;;;;;5076641;28;20453;-81
2021/03/26 06:55:36;;;;;;;37.17;22.13;;;10.50;99.90;;;;;;5115735;28;20455;-82
2021/03/26 06:58:14;;;;;;;33.03;22.30;;;10.70;99.90;;;;;;5114646;27;20541;-82
2021/03/26 07:01:07;;;;;;;34.60;24.50;;;10.60;99.90;;;;;;5109015;28;20425;-82
2021/03/26 07:04:08;;;;;;;30.40;20.93;;;10.80;99.90;;;;;;5118248;27;20401;-83
2021/03/26 07:06:34;;;;;;;28.73;21.37;;;10.80;99.90;;;;;;5115001;28;20406;-82
2021/03/26 07:09:09;;;;;;;33.47;22.47;;;11.00;99.90;;;;;;5098585;28;20401;-82
2021/03/26 07:12:24;;;;;;;31.80;22.67;;;10.80;99.90;;;;;;5115811;28;20512;-81
2021/03/26 07:15:15;;;;;;;32.30;20.70;;;10.90;99.90;;;;;;5092595;28;20504;-82
2021/03/26 07:17:41;;;;;;;30.50;21.53;;;11.00;99.90;;;;;;5105858;28;20413;-83
2021/03/26 07:20:41;;;;;;;33.60;23.83;;;11.10;99.90;;;;;;5097870;28;20413;-82
2021/03/26 07:23:46;;;;;;;31.90;21.83;;;11.20;99.90;;;;;;5114666;28;20187;-84
2021/03/26 07:26:40;;;;;;;31.37;21.97;;;11.40;99.90;;;;;;5110932;28;20516;-83
2021/03/26 07:29:29;;;;;;;29.63;21.73;;;11.50;99.90;;;;;;5105285;28;20453;-82
2021/03/26 07:32:15;;;;;;;32.90;22.67;;;11.60;99.90;;;;;;5112587;28;20475;-82
2021/03/26 07:35:00;;;;;;;31.20;21.33;;;11.70;99.90;;;;;;5101534;28;20410;-82
2021/03/26 07:38:01;;;;;;;29.27;20.83;;;11.90;99.90;;;;;;5112564;28;20429;-83
2021/03/26 07:40:49;;;;;;;30.47;21.37;;;12.00;99.90;;;;;;5096051;28;20941;-83
2021/03/26 07:43:36;;;;;;;27.20;20.10;;;12.20;99.90;;;;;;5094023;28;20422;-82
2021/03/26 07:46:16;;;;;;;29.70;21.80;;;12.40;99.90;;;;;;5106140;28;20450;-82
2021/03/26 07:48:57;;;;;;;26.80;20.17;;;12.30;99.90;;;;;;5110446;28;20417;-82
2021/03/26 07:52:02;;;;;;;29.60;21.53;;;12.40;99.90;;;;;;5114707;28;20422;-81
2021/03/26 07:55:05;;;;;;;28.00;20.30;;;12.50;99.90;;;;;;5077096;28;21098;-82
2021/03/26 07:57:34;;;;;;;27.23;20.83;;;12.70;99.90;;;;;;5101900;28;20420;-82
2021/03/26 08:00:11;;;;;;;27.63;20.40;;;12.90;99.90;;;;;;5094795;28;20458;-82
2021/03/26 08:02:43;;;;;;;24.23;17.73;;;13.10;99.90;;;;;;5125485;28;20437;-82
2021/03/26 08:05:25;;;;;;;26.27;19.20;;;13.00;99.90;;;;;;5112832;28;20449;-82
2021/03/26 08:08:21;;;;;;;28.50;20.93;;;13.10;99.90;;;;;;5095301;28;20417;-83
2021/03/26 08:10:52;;;;;;;27.83;19.90;;;13.10;99.90;;;;;;5113889;28;20429;-82
2021/03/26 08:13:30;;;;;;;27.00;19.50;;;13.20;99.90;;;;;;5111648;28;20429;-82
2021/03/26 08:16:05;;;;;;;24.70;18.50;;;13.10;99.90;;;;;;5094489;28;20418;-82
2021/03/26 08:19:13;;;;;;;26.20;18.40;;;13.20;99.90;;;;;;5112758;28;20409;-82
2021/03/26 08:22:14;;;;;;;25.93;19.20;;;13.30;99.90;;;;;;5113841;27;20445;-82
2021/03/26 08:24:58;;;;;;;25.70;18.80;;;13.40;99.90;;;;;;5100434;28;20460;-82
2021/03/26 08:27:39;;;;;;;25.63;19.20;;;13.30;99.90;;;;;;5100385;28;20478;-82
2021/03/26 08:30:30;;;;;;;23.70;17.87;;;13.20;99.90;;;;;;5108715;28;20469;-82
2021/03/26 08:33:16;;;;;;;23.90;18.40;;;13.20;99.90;;;;;;5116535;28;20412;-81
2021/03/26 08:35:45;;;;;;;24.93;18.30;;;13.20;99.90;;;;;;5115561;28;20417;-82
2021/03/26 08:38:20;;;;;;;27.03;18.07;;;13.20;99.90;;;;;;5115380;28;20443;-82
2021/03/26 08:41:01;;;;;;;24.80;18.00;;;13.30;99.90;;;;;;5115778;28;20531;-82
2021/03/26 08:43:31;;;;;;;25.03;19.00;;;13.30;99.90;;;;;;5096012;28;20426;-84
2021/03/26 08:46:17;;;;;;;23.23;18.30;;;13.30;99.90;;;;;;5094854;28;20461;-82
2021/03/26 08:49:02;;;;;;;22.87;16.87;;;13.30;99.90;;;;;;5116364;28;20420;-82
2021/03/26 08:52:01;;;;;;;24.37;18.37;;;13.20;99.90;;;;;;5117772;28;20440;-82
2021/03/26 08:54:48;;;;;;;23.77;16.20;;;13.30;99.90;;;;;;5107372;28;20498;-82
2021/03/26 08:57:26;;;;;;;21.47;16.80;;;13.50;99.90;;;;;;5116832;28;21014;-82
2021/03/26 09:00:12;;;;;;;22.00;17.00;;;13.60;99.90;;;;;;5116455;27;21020;-84
2021/03/26 09:03:03;;;;;;;19.07;15.43;;;13.70;99.90;;;;;;5102842;28;20523;-82
2021/03/26 09:05:37;;;;;;;23.37;17.13;;;13.80;99.90;;;;;;5106014;28;20833;-81
2021/03/26 09:08:28;;;;;;;19.30;16.70;;;13.90;99.90;;;;;;5117479;28;20496;-82
2021/03/26 09:11:21;;;;;;;18.50;15.33;;;14.10;99.90;;;;;;5099959;28;20430;-83
2021/03/26 09:14:05;;;;;;;21.70;15.23;;;14.00;99.90;;;;;;5088818;28;20778;-82
2021/03/26 09:16:36;;;;;;;17.67;14.40;;;14.00;99.90;;;;;;5103006;28;20502;-83
2021/03/26 09:19:22;;;;;;;17.63;13.57;;;14.10;99.90;;;;;;5121571;27;20435;-82
2021/03/26 09:22:08;;;;;;;19.03;14.17;;;14.20;99.90;;;;;;5078338;28;20438;-82
2021/03/26 09:25:01;;;;;;;16.70;13.20;;;14.40;99.90;;;;;;5115101;28;20802;-83
2021/03/26 09:27:45;;;;;;;17.20;13.40;;;14.70;99.90;;;;;;5116182;28;20469;-82
2021/03/26 09:30:23;;;;;;;17.47;13.43;;;14.80;99.90;;;;;;5079659;28;20453;-82
2021/03/26 09:32:59;;;;;;;24.60;14.50;;;15.00;99.40;;;;;;5116255;27;20445;-83
2021/03/26 09:35:31;;;;;;;18.63;12.83;;;15.10;99.70;;;;;;5114666;28;20417;-82
2021/03/26 09:38:06;;;;;;;19.60;13.37;;;15.30;98.60;;;;;;5115504;28;20492;-82
2021/03/26 09:41:08;;;;;;;17.00;13.17;;;15.20;98.20;;;;;;5115896;28;20413;-81
2021/03/26 09:43:52;;;;;;;15.60;12.60;;;15.50;97.90;;;;;;5099317;28;20425;-83
2021/03/26 09:46:41;;;;;;;14.30;12.60;;;15.70;97.20;;;;;;5111943;27;20532;-82
2021/03/26 09:49:22;;;;;;;18.00;12.67;;;16.00;96.50;;;;;;5114017;27;20422;-83
2021/03/26 09:51:53;;;;;;;14.40;12.23;;;16.30;96.50;;;;;;5097726;28;20441;-82
2021/03/26 09:54:41;;;;;;;16.67;11.43;;;16.80;95.90;;;;;;5115451;28;20421;-81
2021/03/26 09:57:19;;;;;;;16.40;13.37;;;17.10;94.50;;;;;;5117450;28;20409;-83
2021/03/26 10:00:22;;;;;;;15.80;12.57;;;17.00;94.40;;;;;;5116204;28;20397;-81
2021/03/26 10:03:02;;;;;;;16.90;12.83;;;17.20;94.60;;;;;;5118867;27;20467;-83
2021/03/26 10:05:32;;;;;;;20.77;13.13;;;16.90;93.70;;;;;;5089200;28;20449;-82
2021/03/26 10:09:06;;;;;;;17.03;13.10;;;16.60;94.60;;;;;;5098939;28;20414;-83
2021/03/26 10:11:22;;;;;;;15.40;12.67;;;16.20;94.80;;;;;;5109745;28;20532;-83
2021/03/26 10:13:55;;;;;;;17.40;13.47;;;16.30;94.90;;;;;;5114778;28;20451;-83
2021/03/26 10:16:46;;;;;;;17.30;12.70;;;16.60;94.50;;;;;;5114206;28;20413;-84
2021/03/26 10:19:29;;;;;;;16.27;11.60;;;16.50;94.50;;;;;;5112025;28;21194;-84
2021/03/26 10:21:58;;;;;;;16.50;13.60;;;16.80;94.30;;;;;;5115346;28;20445;-82
2021/03/26 10:24:28;;;;;;;18.53;13.93;;;16.80;93.40;;;;;;5097656;28;20465;-83
2021/03/26 10:27:20;;;;;;;16.33;13.50;;;16.80;93.60;;;;;;5114663;28;20478;-82
2021/03/26 10:30:16;;;;;;;14.10;11.47;;;16.90;93.60;;;;;;5101883;28;20508;-84
2021/03/26 10:32:42;;;;;;;16.90;10.43;;;17.20;92.80;;;;;;5113069;27;20446;-82
2021/03/26 10:35:19;;;;;;;12.70;10.43;;;17.30;93.50;;;;;;5095061;28;20464;-82
2021/03/26 10:37:53;;;;;;;14.83;10.60;;;17.70;92.40;;;;;;5114738;28;20224;-82
2021/03/26 10:40:48;;;;;;;11.80;9.17;;;17.50;91.00;;;;;;5113546;28;20418;-83
2021/03/26 10:43:35;;;;;;;11.83;9.43;;;17.40;91.10;;;;;;5112380;28;20482;-83
2021/03/26 10:46:06;;;;;;;10.60;8.87;;;17.50;91.20;;;;;;5110828;28;20493;-83
2021/03/26 10:48:42;;;;;;;11.03;9.67;;;17.50;91.10;;;;;;5119186;27;20824;-82
2021/03/26 10:51:36;;;;;;;14.50;10.00;;;17.70;90.30;;;;;;5114189;28;20433;-83
2021/03/26 10:54:04;;;;;;;12.27;9.90;;;17.30;89.50;;;;;;5107736;28;20890;-82
2021/03/26 10:56:56;;;;;;;12.57;9.50;;;17.30;90.50;;;;;;5091388;28;20421;-83
2021/03/26 10:59:47;;;;;;;12.20;9.90;;;17.20;89.90;;;;;;5111619;28;20466;-83
2021/03/26 11:02:38;;;;;;;12.20;10.73;;;16.80;89.30;;;;;;5109900;28;20450;-83
2021/03/26 11:05:07;;;;;;;14.40;10.50;;;16.60;90.40;;;;;;5112952;28;20449;-83
2021/03/26 11:07:42;;;;;;;11.90;9.73;;;16.70;91.20;;;;;;5113561;28;20909;-82
2021/03/26 11:10:17;;;;;;;13.97;10.70;;;16.80;91.20;;;;;;5114344;28;20424;-84
2021/03/26 11:12:54;;;;;;;14.53;11.33;;;17.20;91.30;;;;;;5115005;28;21007;-83
2021/03/26 11:15:24;;;;;;;15.00;11.83;;;17.20;90.70;;;;;;5115338;28;20405;-83
2021/03/26 11:18:16;;;;;;;16.57;12.50;;;17.40;90.50;;;;;;5107313;28;20791;-83
2021/03/26 11:20:49;;;;;;;12.97;11.07;;;17.70;90.10;;;;;;5115262;27;20454;-83
2021/03/26 11:23:27;;;;;;;13.40;10.87;;;17.80;88.40;;;;;;5102112;28;20398;-81
2021/03/26 11:26:29;;;;;;;13.90;11.00;;;17.90;89.50;;;;;;5113546;28;20463;-82
2021/03/26 11:28:55;;;;;;;14.90;11.10;;;17.80;88.90;;;;;;5107311;28;20520;-83
2021/03/26 11:31:48;;;;;;;18.67;11.70;;;17.90;88.70;;;;;;5112606;28;21022;-82
2021/03/26 11:34:50;;;;;;;15.33;11.40;;;17.90;87.10;;;;;;5096374;28;20219;-82
2021/03/26 11:37:37;;;;;;;15.73;11.13;;;18.00;88.70;;;;;;5113060;28;20413;-84
2021/03/26 11:40:28;;;;;;;13.20;10.57;;;17.90;86.60;;;;;;5114928;28;20435;-82
2021/03/26 11:43:03;;;;;;;14.20;10.33;;;18.10;88.10;;;;;;5100240;28;20420;-82
2021/03/26 11:45:34;;;;;;;15.37;10.90;;;18.10;86.80;;;;;;5110622;28;20473;-82
2021/03/26 11:48:29;;;;;;;14.30;9.77;;;17.70;85.70;;;;;;5083340;28;20434;-82
2021/03/26 11:51:22;;;;;;;12.40;10.50;;;17.40;86.10;;;;;;5092580;28;20455;-83
2021/03/26 11:54:17;;;;;;;15.27;10.93;;;17.40;87.40;;;;;;5100033;28;20405;-82
2021/03/26 11:56:49;;;;;;;12.93;10.43;;;17.30;86.90;;;;;;5108680;28;20457;-83
2021/03/26 11:59:40;;;;;;;14.20;9.80;;;17.40;89.00;;;;;;5118184;28;20414;-82
2021/03/26 12:02:24;;;;;;;12.00;9.33;;;17.40;86.70;;;;;;5115539;28;20525;-83
2021/03/26 12:05:12;;;;;;;10.73;8.93;;;17.20;87.10;;;;;;5117727;28;20928;-82
2021/03/26 12:07:46;;;;;;;13.87;9.47;;;17.10;89.50;;;;;;5118639;28;20409;-83
2021/03/26 12:10:22;;;;;;;11.23;9.20;;;16.70;89.80;;;;;;5118536;28;20957;-82
2021/03/26 12:13:03;;;;;;;10.40;9.30;;;16.50;90.30;;;;;;5119148;28;20415;-83
2021/03/26 12:15:37;;;;;;;10.40;8.40;;;16.60;89.80;;;;;;5118290;28;20414;-83
2021/03/26 12:18:24;;;;;;;11.00;8.07;;;16.80;90.00;;;;;;5090042;28;20438;-82
2021/03/26 12:21:01;;;;;;;10.60;7.93;;;16.90;90.40;;;;;;5116861;28;20532;-82
2021/03/26 12:23:46;;;;;;;9.90;8.10;;;16.80;87.80;;;;;;5100098;28;20414;-83
2021/03/26 12:26:24;;;;;;;11.97;7.40;;;16.80;89.20;;;;;;5117888;28;20471;-83
2021/03/26 12:28:54;;;;;;;9.73;7.60;;;17.10;88.60;;;;;;5116944;28;20494;-82
2021/03/26 12:31:26;;;;;;;9.87;6.73;;;17.40;89.50;;;;;;5117730;28;20449;-83
2021/03/26 12:33:55;;;;;;;9.27;7.00;;;17.80;88.30;;;;;;5088950;28;20426;-83
2021/03/26 12:36:40;;;;;;;7.97;7.17;;;18.00;86.60;;;;;;5125156;27;20499;-83
2021/03/26 12:39:25;;;;;;;9.77;7.20;;;18.10;85.80;;;;;;5119089;28;20413;-83
2021/03/26 12:42:02;;;;;;;7.97;6.73;;;18.10;84.50;;;;;;5117057;28;20532;-82
2021/03/26 12:44:31;;;;;;;8.87;7.27;;;18.10;85.10;;;;;;5096690;28;20446;-83
2021/03/26 12:47:19;;;;;;;7.90;7.10;;;17.80;83.80;;;;;;5097435;28;20395;-83
2021/03/26 12:50:16;;;;;;;9.77;6.53;;;17.50;85.10;;;;;;5112524;28;20429;-82
2021/03/26 12:53:03;;;;;;;9.70;6.50;;;17.20;86.10;;;;;;5115644;28;20495;-82
2021/03/26 12:55:40;;;;;;;8.73;6.50;;;16.90;85.10;;;;;;5116786;28;20414;-81
2021/03/26 12:58:15;;;;;;;9.67;6.53;;;17.00;86.20;;;;;;5096995;28;20422;-84
2021/03/26 13:01:09;;;;;;;7.93;6.13;;;17.00;86.30;;;;;;5116283;28;20421;-82
2021/03/26 13:03:46;;;;;;;7.27;6.30;;;16.90;85.60;;;;;;5100906;28;20868;-81
2021/03/26 13:06:11;;;;;;;7.10;5.40;;;16.70;85.50;;;;;;5112866;28;20863;-82
2021/03/26 13:08:43;;;;;;;7.30;6.37;;;16.70;87.10;;;;;;5100533;28;20470;-82
2021/03/26 13:11:30;;;;;;;7.90;5.67;;;16.60;86.90;;;;;;5117443;28;20199;-82
2021/03/26 13:13:59;;;;;;;6.70;6.03;;;16.60;86.60;;;;;;5095700;28;20410;-83
2021/03/26 13:16:30;;;;;;;7.00;5.77;;;16.70;84.40;;;;;;5096267;28;20410;-82
2021/03/26 13:18:59;;;;;;;6.33;5.03;;;17.00;84.80;;;;;;5113458;28;20491;-83
2021/03/26 13:21:34;;;;;;;7.30;5.70;;;17.20;84.70;;;;;;5117230;28;20442;-83
2021/03/26 13:24:16;;;;;;;6.60;5.13;;;17.30;83.80;;;;;;5117690;28;20417;-82
2021/03/26 13:26:43;;;;;;;8.30;5.80;;;17.40;83.20;;;;;;5106051;28;20439;-82
2021/03/26 13:29:20;;;;;;;6.97;5.70;;;17.10;83.00;;;;;;5098929;28;20805;-84
2021/03/26 13:31:46;;;;;;;6.50;5.40;;;16.90;84.10;;;;;;5118721;28;20429;-82
2021/03/26 13:34:36;;;;;;;7.13;6.17;;;16.90;82.90;;;;;;5120338;27;20455;-82
2021/03/26 13:37:18;;;;;;;5.77;5.20;;;16.70;84.20;;;;;;5083829;28;20421;-82